sensor_id;sensor_type;location;lat;lon;timestamp;P1;durP1;ratioP1;P2;durP2;ratioP2
31680;SDS011;18281;51.364;9.566;2023-03-01T05:31:15;14.45;;;7.53;;
31680;SDS011;18281;51.364;9.566;2023-03-01T05:34:15;13.32;;;7.78;;
31680;SDS011;18281;51.364;9.566;2023-03-01T09:12:19;8.35;;;5.45;;
31680;SDS011;18281;51.364;9.566;2023-03-01T09:14:46;9.80;;;5.80;;
31680;SDS011;18281;51.364;9.566;2023-03-01T09:18:03;9.93;;;4.85;;
31680;SDS011;18281;51.364;9.566;2023-03-01T09:39:47;7.72;;;4.68;;
31680;SDS011;18281;51.364;9.566;2023-03-01T10:10:50;11.93;;;4.53;;
31680;SDS011;18281;51.364;9.566;2023-03-01T10:13:37;8.35;;;4.57;;
31680;SDS011;18281;51.364;9.566;2023-03-01T10:16:38;8.23;;;4.32;;
31680;SDS011;18281;51.364;9.566;2023-03-01T10:19:40;7.47;;;4.63;;
31680;SDS011;18281;51.364;9.566;2023-03-01T10:22:13;7.57;;;4.45;;
31680;SDS011;18281;51.364;9.566;2023-03-01T10:24:43;10.77;;;4.47;;
31680;SDS011;18281;51.364;9.566;2023-03-01T10:27:24;8.65;;;4.55;;
31680;SDS011;18281;51.364;9.566;2023-03-01T10:30:01;11.13;;;4.85;;
31680;SDS011;18281;51.364;9.566;2023-03-01T10:32:41;10.80;;;4.70;;
31680;SDS011;18281;51.364;9.566;2023-03-01T11:05:52;10.60;;;5.60;;
31680;SDS011;18281;51.364;9.566;2023-03-01T11:08:33;8.63;;;4.68;;
31680;SDS011;18281;51.364;9.566;2023-03-01T11:11:34;10.05;;;5.20;;
31680;SDS011;18281;51.364;9.566;2023-03-01T11:14:35;7.45;;;5.15;;
31680;SDS011;18281;51.364;9.566;2023-03-01T11:18:00;7.40;;;4.20;;
31680;SDS011;18281;51.364;9.566;2023-03-01T11:23:57;7.90;;;4.55;;
31680;SDS011;18281;51.364;9.566;2023-03-01T11:26:26;11.07;;;4.53;;
31680;SDS011;18281;51.364;9.566;2023-03-01T11:29:21;7.90;;;4.75;;
31680;SDS011;18281;51.364;9.566;2023-03-01T11:31:52;10.32;;;4.90;;
31680;SDS011;18281;51.364;9.566;2023-03-01T11:37:32;6.60;;;4.65;;
31680;SDS011;18281;51.364;9.566;2023-03-01T11:40:43;8.05;;;4.15;;
31680;SDS011;18281;51.364;9.566;2023-03-01T11:43:26;6.30;;;4.30;;
31680;SDS011;18281;51.364;9.566;2023-03-01T12:06:00;6.43;;;4.90;;
31680;SDS011;18281;51.364;9.566;2023-03-01T12:08:59;8.48;;;5.35;;
31680;SDS011;18281;51.364;9.566;2023-03-01T12:22:03;11.90;;;5.47;;
31680;SDS011;18281;51.364;9.566;2023-03-01T12:27:26;9.77;;;5.03;;
31680;SDS011;18281;51.364;9.566;2023-03-01T12:44:36;8.32;;;4.88;;
31680;SDS011;18281;51.364;9.566;2023-03-01T12:49:49;7.68;;;4.28;;
31680;SDS011;18281;51.364;9.566;2023-03-01T12:58:32;7.63;;;4.32;;
31680;SDS011;18281;51.364;9.566;2023-03-01T13:01:19;7.88;;;4.03;;
31680;SDS011;18281;51.364;9.566;2023-03-01T13:12:14;6.13;;;3.97;;
31680;SDS011;18281;51.364;9.566;2023-03-01T13:17:55;5.82;;;4.15;;
31680;SDS011;18281;51.364;9.566;2023-03-01T13:20:29;10.15;;;4.50;;
31680;SDS011;18281;51.364;9.566;2023-03-01T13:23:21;6.13;;;3.67;;
31680;SDS011;18281;51.364;9.566;2023-03-01T13:29:28;8.60;;;3.92;;
31680;SDS011;18281;51.364;9.566;2023-03-01T13:32:29;10.10;;;4.30;;
31680;SDS011;18281;51.364;9.566;2023-03-01T13:35:08;7.53;;;3.35;;
31680;SDS011;18281;51.364;9.566;2023-03-01T13:37:51;7.30;;;3.60;;
31680;SDS011;18281;51.364;9.566;2023-03-01T13:42:46;5.90;;;3.47;;
31680;SDS011;18281;51.364;9.566;2023-03-01T13:45:18;7.03;;;3.97;;
31680;SDS011;18281;51.364;9.566;2023-03-01T13:47:52;6.22;;;4.05;;
31680;SDS011;18281;51.364;9.566;2023-03-01T13:50:33;8.15;;;3.42;;
31680;SDS011;18281;51.364;9.566;2023-03-01T13:53:10;5.60;;;3.70;;
31680;SDS011;18281;51.364;9.566;2023-03-01T13:55:44;5.68;;;3.97;;
31680;SDS011;18281;51.364;9.566;2023-03-01T14:00:46;5.68;;;3.65;;
31680;SDS011;18281;51.364;9.566;2023-03-01T14:03:18;5.72;;;3.78;;
31680;SDS011;18281;51.364;9.566;2023-03-01T14:08:34;5.50;;;4.00;;
31680;SDS011;18281;51.364;9.566;2023-03-01T14:16:59;11.55;;;4.00;;
31680;SDS011;18281;51.364;9.566;2023-03-01T14:19:45;8.75;;;4.07;;
31680;SDS011;18281;51.364;9.566;2023-03-01T14:22:26;7.80;;;4.63;;
31680;SDS011;18281;51.364;9.566;2023-03-01T14:28:04;7.07;;;3.97;;
31680;SDS011;18281;51.364;9.566;2023-03-01T14:30:52;6.75;;;3.78;;
31680;SDS011;18281;51.364;9.566;2023-03-01T14:35:58;7.05;;;4.43;;
31680;SDS011;18281;51.364;9.566;2023-03-01T14:38:30;8.70;;;4.22;;
31680;SDS011;18281;51.364;9.566;2023-03-01T14:41:05;7.22;;;4.25;;
31680;SDS011;18281;51.364;9.566;2023-03-01T14:43:41;6.70;;;3.92;;
31680;SDS011;18281;51.364;9.566;2023-03-01T14:46:19;5.32;;;3.83;;
31680;SDS011;18281;51.364;9.566;2023-03-01T14:48:49;7.38;;;4.18;;
31680;SDS011;18281;51.364;9.566;2023-03-01T14:51:16;7.75;;;3.72;;
31680;SDS011;18281;51.364;9.566;2023-03-01T14:53:41;8.20;;;4.00;;
31680;SDS011;18281;51.364;9.566;2023-03-01T14:56:12;5.57;;;3.45;;
31680;SDS011;18281;51.364;9.566;2023-03-01T14:58:39;5.53;;;3.95;;
31680;SDS011;18281;51.364;9.566;2023-03-01T15:01:04;7.63;;;3.88;;
31680;SDS011;18281;51.364;9.566;2023-03-01T15:03:40;6.88;;;4.18;;
31680;SDS011;18281;51.364;9.566;2023-03-01T15:06:08;5.85;;;4.25;;
31680;SDS011;18281;51.364;9.566;2023-03-01T15:08:37;6.03;;;4.20;;
31680;SDS011;18281;51.364;9.566;2023-03-01T15:13:39;6.82;;;3.85;;
31680;SDS011;18281;51.364;9.566;2023-03-01T15:16:12;6.00;;;3.85;;
31680;SDS011;18281;51.364;9.566;2023-03-01T15:18:48;5.45;;;3.58;;
31680;SDS011;18281;51.364;9.566;2023-03-01T15:21:19;7.63;;;4.03;;
31680;SDS011;18281;51.364;9.566;2023-03-01T15:23:52;6.63;;;4.28;;
31680;SDS011;18281;51.364;9.566;2023-03-01T15:26:24;6.28;;;4.20;;
31680;SDS011;18281;51.364;9.566;2023-03-01T15:28:55;8.68;;;4.15;;
31680;SDS011;18281;51.364;9.566;2023-03-01T15:31:35;6.07;;;3.63;;
31680;SDS011;18281;51.364;9.566;2023-03-01T15:34:37;8.77;;;4.18;;
31680;SDS011;18281;51.364;9.566;2023-03-01T15:36:59;6.10;;;3.72;;
31680;SDS011;18281;51.364;9.566;2023-03-01T15:42:03;6.38;;;3.67;;
31680;SDS011;18281;51.364;9.566;2023-03-01T15:44:47;12.70;;;3.58;;
31680;SDS011;18281;51.364;9.566;2023-03-01T15:47:32;11.65;;;3.70;;
31680;SDS011;18281;51.364;9.566;2023-03-01T15:50:02;12.13;;;3.80;;
31680;SDS011;18281;51.364;9.566;2023-03-01T15:52:41;7.10;;;3.38;;
31680;SDS011;18281;51.364;9.566;2023-03-01T15:55:15;7.20;;;3.58;;
31680;SDS011;18281;51.364;9.566;2023-03-01T15:57:43;6.68;;;3.80;;
31680;SDS011;18281;51.364;9.566;2023-03-01T16:00:11;7.72;;;4.85;;
31680;SDS011;18281;51.364;9.566;2023-03-01T16:02:38;5.95;;;3.33;;
31680;SDS011;18281;51.364;9.566;2023-03-01T16:05:04;9.25;;;4.00;;
31680;SDS011;18281;51.364;9.566;2023-03-01T16:07:30;5.95;;;3.78;;
31680;SDS011;18281;51.364;9.566;2023-03-01T16:09:56;4.95;;;3.58;;
31680;SDS011;18281;51.364;9.566;2023-03-01T16:12:21;7.20;;;3.90;;
31680;SDS011;18281;51.364;9.566;2023-03-01T16:14:47;5.97;;;3.65;;
31680;SDS011;18281;51.364;9.566;2023-03-01T16:17:13;6.55;;;3.85;;
31680;SDS011;18281;51.364;9.566;2023-03-01T16:19:40;5.32;;;3.67;;
31680;SDS011;18281;51.364;9.566;2023-03-01T16:22:09;6.07;;;3.78;;
31680;SDS011;18281;51.364;9.566;2023-03-01T16:24:35;8.27;;;3.75;;
31680;SDS011;18281;51.364;9.566;2023-03-01T16:27:01;7.03;;;3.20;;
31680;SDS011;18281;51.364;9.566;2023-03-01T16:29:26;6.50;;;3.65;;
31680;SDS011;18281;51.364;9.566;2023-03-01T16:31:54;6.88;;;3.20;;
31680;SDS011;18281;51.364;9.566;2023-03-01T16:34:24;5.22;;;3.50;;
31680;SDS011;18281;51.364;9.566;2023-03-01T16:36:50;6.00;;;3.50;;
31680;SDS011;18281;51.364;9.566;2023-03-01T16:39:15;5.90;;;3.90;;
31680;SDS011;18281;51.364;9.566;2023-03-01T16:41:41;5.75;;;3.85;;
31680;SDS011;18281;51.364;9.566;2023-03-01T16:44:14;8.77;;;4.07;;
31680;SDS011;18281;51.364;9.566;2023-03-01T16:46:40;7.55;;;3.72;;
31680;SDS011;18281;51.364;9.566;2023-03-01T16:49:07;7.50;;;4.13;;
31680;SDS011;18281;51.364;9.566;2023-03-01T16:51:33;5.82;;;3.63;;
31680;SDS011;18281;51.364;9.566;2023-03-01T16:54:00;7.15;;;3.72;;
31680;SDS011;18281;51.364;9.566;2023-03-01T16:56:26;6.20;;;3.65;;
31680;SDS011;18281;51.364;9.566;2023-03-01T16:58:51;5.28;;;3.53;;
31680;SDS011;18281;51.364;9.566;2023-03-01T17:01:17;5.40;;;3.53;;
31680;SDS011;18281;51.364;9.566;2023-03-01T17:03:45;10.82;;;3.75;;
31680;SDS011;18281;51.364;9.566;2023-03-01T17:06:13;7.13;;;3.38;;
31680;SDS011;18281;51.364;9.566;2023-03-01T17:08:40;9.27;;;3.90;;
31680;SDS011;18281;51.364;9.566;2023-03-01T17:11:07;7.05;;;3.75;;
31680;SDS011;18281;51.364;9.566;2023-03-01T17:13:37;7.50;;;3.50;;
31680;SDS011;18281;51.364;9.566;2023-03-01T17:16:07;6.20;;;3.42;;
31680;SDS011;18281;51.364;9.566;2023-03-01T17:18:34;4.35;;;2.95;;
31680;SDS011;18281;51.364;9.566;2023-03-01T17:21:00;4.80;;;2.63;;
31680;SDS011;18281;51.364;9.566;2023-03-01T17:23:26;4.50;;;2.97;;
31680;SDS011;18281;51.364;9.566;2023-03-01T17:25:53;5.57;;;3.45;;
31680;SDS011;18281;51.364;9.566;2023-03-01T17:28:20;4.78;;;2.88;;
31680;SDS011;18281;51.364;9.566;2023-03-01T17:30:49;15.80;;;8.48;;
31680;SDS011;18281;51.364;9.566;2023-03-01T17:33:15;19.88;;;11.30;;
31680;SDS011;18281;51.364;9.566;2023-03-01T17:39:08;14.98;;;6.95;;
31680;SDS011;18281;51.364;9.566;2023-03-01T17:41:36;10.57;;;6.07;;
31680;SDS011;18281;51.364;9.566;2023-03-01T17:44:01;9.38;;;4.65;;
31680;SDS011;18281;51.364;9.566;2023-03-01T17:46:27;8.68;;;4.43;;
31680;SDS011;18281;51.364;9.566;2023-03-01T17:48:52;5.40;;;3.53;;
31680;SDS011;18281;51.364;9.566;2023-03-01T17:51:18;5.80;;;3.50;;
31680;SDS011;18281;51.364;9.566;2023-03-01T17:53:43;7.60;;;3.58;;
31680;SDS011;18281;51.364;9.566;2023-03-01T17:56:09;10.73;;;3.38;;
31680;SDS011;18281;51.364;9.566;2023-03-01T17:58:35;7.80;;;3.80;;
31680;SDS011;18281;51.364;9.566;2023-03-01T18:01:07;6.82;;;2.97;;
31680;SDS011;18281;51.364;9.566;2023-03-01T18:03:40;9.23;;;3.97;;
31680;SDS011;18281;51.364;9.566;2023-03-01T18:06:10;7.78;;;3.30;;
31680;SDS011;18281;51.364;9.566;2023-03-01T18:08:44;6.75;;;3.33;;
31680;SDS011;18281;51.364;9.566;2023-03-01T18:11:10;5.70;;;3.20;;
31680;SDS011;18281;51.364;9.566;2023-03-01T18:13:39;6.30;;;4.20;;
31680;SDS011;18281;51.364;9.566;2023-03-01T18:16:14;5.68;;;3.60;;
31680;SDS011;18281;51.364;9.566;2023-03-01T18:18:40;11.20;;;3.53;;
31680;SDS011;18281;51.364;9.566;2023-03-01T18:21:06;8.07;;;3.95;;
31680;SDS011;18281;51.364;9.566;2023-03-01T18:23:32;5.72;;;3.45;;
31680;SDS011;18281;51.364;9.566;2023-03-01T18:26:06;7.10;;;3.80;;
31680;SDS011;18281;51.364;9.566;2023-03-01T18:28:34;8.52;;;3.78;;
31680;SDS011;18281;51.364;9.566;2023-03-01T18:31:00;7.75;;;3.40;;
31680;SDS011;18281;51.364;9.566;2023-03-01T18:33:28;7.33;;;4.40;;
31680;SDS011;18281;51.364;9.566;2023-03-01T18:35:55;4.78;;;3.13;;
31680;SDS011;18281;51.364;9.566;2023-03-01T18:38:20;5.80;;;3.17;;
31680;SDS011;18281;51.364;9.566;2023-03-01T18:40:49;4.07;;;2.35;;
31680;SDS011;18281;51.364;9.566;2023-03-01T18:43:29;7.97;;;3.67;;
31680;SDS011;18281;51.364;9.566;2023-03-01T19:11:54;3.28;;;2.78;;
31680;SDS011;18281;51.364;9.566;2023-03-01T19:14:24;4.30;;;2.90;;
31680;SDS011;18281;51.364;9.566;2023-03-01T19:17:25;8.88;;;5.03;;
31680;SDS011;18281;51.364;9.566;2023-03-01T19:20:04;7.15;;;4.22;;
31680;SDS011;18281;51.364;9.566;2023-03-01T19:22:36;8.55;;;5.40;;
31680;SDS011;18281;51.364;9.566;2023-03-01T19:25:33;6.55;;;4.30;;
31680;SDS011;18281;51.364;9.566;2023-03-01T19:28:02;8.43;;;4.65;;
31680;SDS011;18281;51.364;9.566;2023-03-01T19:30:39;8.88;;;4.65;;
31680;SDS011;18281;51.364;9.566;2023-03-01T19:33:17;8.60;;;4.60;;
31680;SDS011;18281;51.364;9.566;2023-03-01T19:35:49;8.07;;;4.43;;
31680;SDS011;18281;51.364;9.566;2023-03-01T19:38:20;7.32;;;5.40;;
31680;SDS011;18281;51.364;9.566;2023-03-01T19:40:51;9.43;;;5.25;;
31680;SDS011;18281;51.364;9.566;2023-03-01T19:43:43;7.85;;;4.75;;
31680;SDS011;18281;51.364;9.566;2023-03-01T19:46:39;9.45;;;5.20;;
31680;SDS011;18281;51.364;9.566;2023-03-01T19:49:18;7.50;;;4.65;;
31680;SDS011;18281;51.364;9.566;2023-03-01T19:51:53;7.18;;;4.68;;
31680;SDS011;18281;51.364;9.566;2023-03-01T19:54:26;9.07;;;4.78;;
31680;SDS011;18281;51.364;9.566;2023-03-01T19:56:54;7.35;;;4.80;;
31680;SDS011;18281;51.364;9.566;2023-03-01T19:59:22;7.90;;;4.55;;
31680;SDS011;18281;51.364;9.566;2023-03-01T20:02:07;8.10;;;4.95;;
31680;SDS011;18281;51.364;9.566;2023-03-01T20:04:36;6.43;;;4.15;;
31680;SDS011;18281;51.364;9.566;2023-03-01T20:07:06;7.90;;;4.70;;
31680;SDS011;18281;51.364;9.566;2023-03-01T20:09:32;8.80;;;4.43;;
31680;SDS011;18281;51.364;9.566;2023-03-01T20:11:59;8.57;;;4.50;;
31680;SDS011;18281;51.364;9.566;2023-03-01T20:14:30;5.55;;;4.15;;
31680;SDS011;18281;51.364;9.566;2023-03-01T20:17:02;8.25;;;4.53;;
31680;SDS011;18281;51.364;9.566;2023-03-01T20:19:30;9.18;;;3.92;;
31680;SDS011;18281;51.364;9.566;2023-03-01T20:21:56;8.38;;;3.95;;
31680;SDS011;18281;51.364;9.566;2023-03-01T20:24:27;11.55;;;4.40;;
31680;SDS011;18281;51.364;9.566;2023-03-01T20:26:55;7.32;;;3.95;;
31680;SDS011;18281;51.364;9.566;2023-03-01T20:29:27;5.47;;;3.65;;
31680;SDS011;18281;51.364;9.566;2023-03-01T20:32:03;5.25;;;3.72;;
31680;SDS011;18281;51.364;9.566;2023-03-01T20:34:44;6.03;;;4.10;;
31680;SDS011;18281;51.364;9.566;2023-03-01T20:37:15;7.45;;;4.03;;
31680;SDS011;18281;51.364;9.566;2023-03-01T20:39:41;7.05;;;4.10;;
31680;SDS011;18281;51.364;9.566;2023-03-01T20:42:08;5.50;;;3.80;;
31680;SDS011;18281;51.364;9.566;2023-03-01T20:44:39;6.70;;;3.40;;
31680;SDS011;18281;51.364;9.566;2023-03-01T20:47:09;6.07;;;4.00;;
31680;SDS011;18281;51.364;9.566;2023-03-01T20:49:44;7.70;;;4.35;;
31680;SDS011;18281;51.364;9.566;2023-03-01T20:52:16;5.00;;;3.75;;
31680;SDS011;18281;51.364;9.566;2023-03-01T20:54:52;7.07;;;3.88;;
31680;SDS011;18281;51.364;9.566;2023-03-01T20:57:18;6.20;;;3.97;;
31680;SDS011;18281;51.364;9.566;2023-03-01T20:59:43;7.78;;;3.90;;
31680;SDS011;18281;51.364;9.566;2023-03-01T21:02:09;8.45;;;3.75;;
31680;SDS011;18281;51.364;9.566;2023-03-01T21:04:35;8.48;;;4.22;;
31680;SDS011;18281;51.364;9.566;2023-03-01T21:07:01;7.22;;;3.88;;
31680;SDS011;18281;51.364;9.566;2023-03-01T21:09:27;10.20;;;3.97;;
31680;SDS011;18281;51.364;9.566;2023-03-01T21:11:54;6.47;;;4.00;;
31680;SDS011;18281;51.364;9.566;2023-03-01T21:14:20;8.00;;;4.10;;
31680;SDS011;18281;51.364;9.566;2023-03-01T21:16:46;7.53;;;3.75;;
31680;SDS011;18281;51.364;9.566;2023-03-01T21:19:13;7.18;;;4.53;;
31680;SDS011;18281;51.364;9.566;2023-03-01T21:21:39;7.20;;;4.35;;
31680;SDS011;18281;51.364;9.566;2023-03-01T21:24:13;7.30;;;4.78;;
31680;SDS011;18281;51.364;9.566;2023-03-01T21:26:40;12.77;;;6.53;;
31680;SDS011;18281;51.364;9.566;2023-03-01T21:29:15;10.35;;;5.55;;
31680;SDS011;18281;51.364;9.566;2023-03-01T21:31:41;10.10;;;5.88;;
31680;SDS011;18281;51.364;9.566;2023-03-01T21:34:07;12.50;;;5.45;;
31680;SDS011;18281;51.364;9.566;2023-03-01T21:36:32;10.32;;;5.00;;
31680;SDS011;18281;51.364;9.566;2023-03-01T21:38:59;8.77;;;5.38;;
31680;SDS011;18281;51.364;9.566;2023-03-01T21:41:33;10.65;;;5.57;;
31680;SDS011;18281;51.364;9.566;2023-03-01T21:44:02;9.90;;;5.57;;
31680;SDS011;18281;51.364;9.566;2023-03-01T21:46:36;10.63;;;5.28;;
31680;SDS011;18281;51.364;9.566;2023-03-01T21:49:09;9.35;;;5.03;;
31680;SDS011;18281;51.364;9.566;2023-03-01T21:51:35;11.45;;;6.30;;
31680;SDS011;18281;51.364;9.566;2023-03-01T21:54:00;13.85;;;6.65;;
31680;SDS011;18281;51.364;9.566;2023-03-01T21:56:28;26.38;;;10.73;;
31680;SDS011;18281;51.364;9.566;2023-03-01T21:59:07;23.98;;;10.00;;
31680;SDS011;18281;51.364;9.566;2023-03-01T22:01:55;25.85;;;9.38;;
31680;SDS011;18281;51.364;9.566;2023-03-01T22:04:23;19.52;;;8.35;;
31680;SDS011;18281;51.364;9.566;2023-03-01T22:06:51;19.02;;;8.55;;
31680;SDS011;18281;51.364;9.566;2023-03-01T22:09:18;23.90;;;8.77;;
31680;SDS011;18281;51.364;9.566;2023-03-01T22:11:50;21.63;;;9.05;;
31680;SDS011;18281;51.364;9.566;2023-03-01T22:14:32;18.55;;;8.80;;
31680;SDS011;18281;51.364;9.566;2023-03-01T22:17:01;21.50;;;10.23;;
31680;SDS011;18281;51.364;9.566;2023-03-01T22:19:29;20.08;;;9.68;;
31680;SDS011;18281;51.364;9.566;2023-03-01T22:21:57;21.45;;;9.80;;
31680;SDS011;18281;51.364;9.566;2023-03-01T22:24:23;19.67;;;8.57;;
31680;SDS011;18281;51.364;9.566;2023-03-01T22:26:50;22.38;;;9.57;;
31680;SDS011;18281;51.364;9.566;2023-03-01T22:29:19;22.52;;;9.52;;
31680;SDS011;18281;51.364;9.566;2023-03-01T22:31:54;23.13;;;8.98;;
31680;SDS011;18281;51.364;9.566;2023-03-01T22:34:20;19.42;;;9.43;;
31680;SDS011;18281;51.364;9.566;2023-03-01T22:36:49;17.45;;;8.20;;
31680;SDS011;18281;51.364;9.566;2023-03-01T22:39:16;18.30;;;8.77;;
31680;SDS011;18281;51.364;9.566;2023-03-01T22:41:44;20.90;;;9.35;;
31680;SDS011;18281;51.364;9.566;2023-03-01T22:44:12;15.82;;;8.27;;
31680;SDS011;18281;51.364;9.566;2023-03-01T22:46:50;18.13;;;9.00;;
31680;SDS011;18281;51.364;9.566;2023-03-01T22:49:26;17.20;;;9.05;;
31680;SDS011;18281;51.364;9.566;2023-03-01T22:51:56;17.88;;;9.88;;
31680;SDS011;18281;51.364;9.566;2023-03-01T22:54:29;19.35;;;10.25;;
31680;SDS011;18281;51.364;9.566;2023-03-01T22:56:59;18.90;;;9.00;;
31680;SDS011;18281;51.364;9.566;2023-03-01T22:59:56;19.02;;;9.15;;
31680;SDS011;18281;51.364;9.566;2023-03-01T23:02:39;17.42;;;8.63;;
31680;SDS011;18281;51.364;9.566;2023-03-01T23:05:17;17.50;;;9.25;;
31680;SDS011;18281;51.364;9.566;2023-03-01T23:08:11;15.07;;;8.18;;
31680;SDS011;18281;51.364;9.566;2023-03-01T23:10:43;17.20;;;7.72;;
31680;SDS011;18281;51.364;9.566;2023-03-01T23:13:12;14.27;;;6.55;;
31680;SDS011;18281;51.364;9.566;2023-03-01T23:15:38;14.85;;;7.25;;
31680;SDS011;18281;51.364;9.566;2023-03-01T23:18:09;14.00;;;7.22;;
31680;SDS011;18281;51.364;9.566;2023-03-01T23:20:38;10.57;;;6.10;;
31680;SDS011;18281;51.364;9.566;2023-03-01T23:23:03;13.65;;;6.72;;
31680;SDS011;18281;51.364;9.566;2023-03-01T23:25:37;14.82;;;7.03;;
31680;SDS011;18281;51.364;9.566;2023-03-01T23:28:32;9.60;;;6.15;;
31680;SDS011;18281;51.364;9.566;2023-03-01T23:31:00;10.45;;;5.80;;
31680;SDS011;18281;51.364;9.566;2023-03-01T23:33:29;11.13;;;5.65;;
31680;SDS011;18281;51.364;9.566;2023-03-01T23:36:14;9.18;;;5.50;;
31680;SDS011;18281;51.364;9.566;2023-03-01T23:38:55;11.73;;;6.05;;
31680;SDS011;18281;51.364;9.566;2023-03-01T23:41:27;9.57;;;5.70;;
31680;SDS011;18281;51.364;9.566;2023-03-01T23:43:55;11.30;;;5.88;;
31680;SDS011;18281;51.364;9.566;2023-03-01T23:46:28;10.07;;;5.88;;
31680;SDS011;18281;51.364;9.566;2023-03-01T23:48:58;9.50;;;5.57;;
31680;SDS011;18281;51.364;9.566;2023-03-01T23:51:25;11.27;;;6.13;;
31680;SDS011;18281;51.364;9.566;2023-03-01T23:53:59;10.35;;;5.32;;
31680;SDS011;18281;51.364;9.566;2023-03-01T23:56:30;10.43;;;5.10;;
31680;SDS011;18281;51.364;9.566;2023-03-01T23:59:22;11.52;;;5.45;;
